Livona, North Dakota
Current Conditions -  °F | °C
As of 1:52 AM on Tuesday 21 Oct 2014 (Local Time) from KBIS Reporting Station
Clear Clear  
Wind Chill: 54°   Ceiling: Unl
Heat Index: 54°   Visibility: 10mi
Dew Point: 35°   Wind: 13mph
Humidity: 49%   Direction: 100°E
Pressure: 29.9"   Gusts: NA
Location:  46.7287°N, 100.616°W
Report Text: KBIS 210652Z AUTO 10011KT 10SM CLR 12/02 A2990 RMK AO2 SLP123 T01220017
Loading
Personal Weather Stations






























Interactive Weather Map
Tropical Storm Tracking
New forecast layout! Learn more

10-Day Weather Forecast

Advertisements
Track Severe Weather on mobile